sensor_id;sensor_type;location;lat;lon;timestamp;pressure;altitude;pressure_sealevel;temperature;humidity
22181;BME280;11256;50.830;12.834;2023-12-29T00:01:17;97325.88;;;7.30;74.36
22181;BME280;11256;50.830;12.834;2023-12-29T00:06:18;97305.06;;;7.20;74.88
22181;BME280;11256;50.830;12.834;2023-12-29T00:11:19;97316.44;;;7.27;74.71
22181;BME280;11256;50.830;12.834;2023-12-29T00:16:20;97304.00;;;7.21;75.09
22181;BME280;11256;50.830;12.834;2023-12-29T00:21:20;97305.91;;;7.21;74.91
22181;BME280;11256;50.830;12.834;2023-12-29T00:26:21;97305.34;;;7.24;75.09
22181;BME280;11256;50.830;12.834;2023-12-29T00:31:27;97277.09;;;7.16;74.70
22181;BME280;11256;50.830;12.834;2023-12-29T00:36:27;97275.72;;;7.09;75.37
22181;BME280;11256;50.830;12.834;2023-12-29T00:41:28;97268.72;;;7.18;75.14
22181;BME280;11256;50.830;12.834;2023-12-29T00:46:28;97261.97;;;7.15;75.10
22181;BME280;11256;50.830;12.834;2023-12-29T00:51:29;97268.19;;;7.26;75.22
22181;BME280;11256;50.830;12.834;2023-12-29T00:56:29;97274.66;;;7.25;75.39
22181;BME280;11256;50.830;12.834;2023-12-29T01:01:33;97266.00;;;7.23;75.08
22181;BME280;11256;50.830;12.834;2023-12-29T01:06:34;97260.38;;;7.19;75.85
22181;BME280;11256;50.830;12.834;2023-12-29T01:11:34;97263.88;;;7.25;75.87
22181;BME280;11256;50.830;12.834;2023-12-29T01:16:34;97247.72;;;7.20;75.92
22181;BME280;11256;50.830;12.834;2023-12-29T01:21:37;97250.41;;;7.20;76.03
22181;BME280;11256;50.830;12.834;2023-12-29T01:26:37;97249.31;;;7.26;75.51
22181;BME280;11256;50.830;12.834;2023-12-29T01:31:38;97244.72;;;7.21;75.43
22181;BME280;11256;50.830;12.834;2023-12-29T01:36:40;97245.00;;;7.25;75.87
22181;BME280;11256;50.830;12.834;2023-12-29T01:41:40;97244.19;;;7.24;75.47
22181;BME280;11256;50.830;12.834;2023-12-29T01:46:41;97234.75;;;7.22;75.60
22181;BME280;11256;50.830;12.834;2023-12-29T01:51:42;97233.97;;;7.16;75.55
22181;BME280;11256;50.830;12.834;2023-12-29T01:56:43;97233.16;;;7.21;75.60
22181;BME280;11256;50.830;12.834;2023-12-29T02:01:43;97221.28;;;7.17;75.78
22181;BME280;11256;50.830;12.834;2023-12-29T02:06:43;97205.13;;;7.12;75.85
22181;BME280;11256;50.830;12.834;2023-12-29T02:11:44;97212.94;;;7.18;75.63
22181;BME280;11256;50.830;12.834;2023-12-29T02:22:07;97186.81;;;7.14;76.01
22181;BME280;11256;50.830;12.834;2023-12-29T02:27:25;97178.44;;;7.15;75.75
22181;BME280;11256;50.830;12.834;2023-12-29T02:32:26;97177.41;;;7.16;75.86
22181;BME280;11256;50.830;12.834;2023-12-29T02:37:28;97169.31;;;7.16;75.99
22181;BME280;11256;50.830;12.834;2023-12-29T02:42:29;97162.03;;;7.12;76.32
22181;BME280;11256;50.830;12.834;2023-12-29T02:47:29;97168.75;;;7.14;76.62
22181;BME280;11256;50.830;12.834;2023-12-29T02:52:30;97158.25;;;7.13;76.23
22181;BME280;11256;50.830;12.834;2023-12-29T02:57:30;97143.16;;;7.12;76.47
22181;BME280;11256;50.830;12.834;2023-12-29T03:02:31;97141.28;;;7.12;76.38
22181;BME280;11256;50.830;12.834;2023-12-29T03:07:31;97154.50;;;7.14;76.84
22181;BME280;11256;50.830;12.834;2023-12-29T03:12:31;97137.25;;;7.05;76.94
22181;BME280;11256;50.830;12.834;2023-12-29T03:17:32;97130.50;;;7.17;77.31
22181;BME280;11256;50.830;12.834;2023-12-29T03:22:32;97134.00;;;7.13;77.45
22181;BME280;11256;50.830;12.834;2023-12-29T03:27:32;97157.19;;;7.19;78.39
22181;BME280;11256;50.830;12.834;2023-12-29T03:32:33;97118.41;;;7.10;77.95
22181;BME280;11256;50.830;12.834;2023-12-29T03:37:34;97124.88;;;7.14;77.69
22181;BME280;11256;50.830;12.834;2023-12-29T03:42:35;97142.91;;;7.23;77.18
22181;BME280;11256;50.830;12.834;2023-12-29T03:47:35;97143.16;;;7.27;78.13
22181;BME280;11256;50.830;12.834;2023-12-29T03:52:36;97145.31;;;7.30;78.43
22181;BME280;11256;50.830;12.834;2023-12-29T03:57:37;97128.06;;;7.26;78.20
22181;BME280;11256;50.830;12.834;2023-12-29T04:02:38;97127.53;;;7.24;78.04
22181;BME280;11256;50.830;12.834;2023-12-29T04:07:39;97128.56;;;7.38;77.54
22181;BME280;11256;50.830;12.834;2023-12-29T04:12:40;97121.03;;;7.35;77.29
22181;BME280;11256;50.830;12.834;2023-12-29T04:17:41;97107.03;;;7.28;77.62
22181;BME280;11256;50.830;12.834;2023-12-29T04:22:42;97111.91;;;7.31;77.25
22181;BME280;11256;50.830;12.834;2023-12-29T04:27:42;97105.94;;;7.34;76.83
22181;BME280;11256;50.830;12.834;2023-12-29T04:32:42;97125.34;;;7.36;76.75
22181;BME280;11256;50.830;12.834;2023-12-29T04:37:44;97126.16;;;7.36;76.55
22181;BME280;11256;50.830;12.834;2023-12-29T04:42:45;97137.19;;;7.40;76.09
22181;BME280;11256;50.830;12.834;2023-12-29T04:47:45;97138.00;;;7.40;76.23
22181;BME280;11256;50.830;12.834;2023-12-29T04:52:46;97140.44;;;7.37;75.99
22181;BME280;11256;50.830;12.834;2023-12-29T04:57:46;97143.41;;;7.40;76.38
22181;BME280;11256;50.830;12.834;2023-12-29T05:02:46;97137.47;;;7.38;76.15
22181;BME280;11256;50.830;12.834;2023-12-29T05:07:47;97152.00;;;7.42;75.78
22181;BME280;11256;50.830;12.834;2023-12-29T05:12:47;97153.34;;;7.40;75.90
22181;BME280;11256;50.830;12.834;2023-12-29T05:17:47;97148.53;;;7.37;75.83
22181;BME280;11256;50.830;12.834;2023-12-29T05:22:48;97144.75;;;7.38;76.21
22181;BME280;11256;50.830;12.834;2023-12-29T05:27:48;97134.25;;;7.31;76.10
22181;BME280;11256;50.830;12.834;2023-12-29T05:32:48;97136.41;;;7.39;76.30
22181;BME280;11256;50.830;12.834;2023-12-29T05:37:49;97124.78;;;7.39;75.99
22181;BME280;11256;50.830;12.834;2023-12-29T05:42:50;97123.69;;;7.45;76.39
22181;BME280;11256;50.830;12.834;2023-12-29T05:47:51;97109.69;;;7.43;76.33
22181;BME280;11256;50.830;12.834;2023-12-29T05:52:51;97125.03;;;7.42;76.03
22181;BME280;11256;50.830;12.834;2023-12-29T05:57:51;97126.69;;;7.43;75.60
22181;BME280;11256;50.830;12.834;2023-12-29T06:02:52;97108.88;;;7.42;75.78
22181;BME280;11256;50.830;12.834;2023-12-29T06:07:52;97106.47;;;7.41;75.14
22181;BME280;11256;50.830;12.834;2023-12-29T06:12:52;97123.69;;;7.50;75.29
22181;BME280;11256;50.830;12.834;2023-12-29T06:17:53;97117.25;;;7.41;75.25
22181;BME280;11256;50.830;12.834;2023-12-29T06:22:54;97118.31;;;7.45;75.26
22181;BME280;11256;50.830;12.834;2023-12-29T06:27:55;97120.47;;;7.48;75.10
22181;BME280;11256;50.830;12.834;2023-12-29T06:32:55;97095.69;;;7.41;75.08
22181;BME280;11256;50.830;12.834;2023-12-29T06:37:55;97080.06;;;7.38;75.09
22181;BME280;11256;50.830;12.834;2023-12-29T06:42:56;97079.53;;;7.41;75.28
22181;BME280;11256;50.830;12.834;2023-12-29T06:47:56;97086.28;;;7.33;75.50
22181;BME280;11256;50.830;12.834;2023-12-29T06:52:57;97075.22;;;7.35;75.59
22181;BME280;11256;50.830;12.834;2023-12-29T06:57:57;97083.84;;;7.42;75.50
22181;BME280;11256;50.830;12.834;2023-12-29T07:02:57;97068.75;;;7.41;75.28
22181;BME280;11256;50.830;12.834;2023-12-29T07:07:58;97097.56;;;7.45;75.40
22181;BME280;11256;50.830;12.834;2023-12-29T07:12:58;97089.75;;;7.44;75.40
22181;BME280;11256;50.830;12.834;2023-12-29T07:17:58;97076.78;;;7.46;75.11
22181;BME280;11256;50.830;12.834;2023-12-29T07:23:00;97094.03;;;7.50;75.08
22181;BME280;11256;50.830;12.834;2023-12-29T07:28:00;97096.19;;;7.48;75.44
22181;BME280;11256;50.830;12.834;2023-12-29T07:33:00;97095.41;;;7.37;75.50
22181;BME280;11256;50.830;12.834;2023-12-29T07:38:02;97119.91;;;7.46;75.41
22181;BME280;11256;50.830;12.834;2023-12-29T07:43:03;97130.16;;;7.54;75.28
22181;BME280;11256;50.830;12.834;2023-12-29T07:48:04;97141.44;;;7.56;75.34
22181;BME280;11256;50.830;12.834;2023-12-29T07:53:06;97172.69;;;7.62;75.68
22181;BME280;11256;50.830;12.834;2023-12-29T07:58:06;97170.81;;;7.62;75.58
22181;BME280;11256;50.830;12.834;2023-12-29T08:03:06;97182.38;;;7.73;75.54
22181;BME280;11256;50.830;12.834;2023-12-29T08:08:07;97181.00;;;7.80;75.69
22181;BME280;11256;50.830;12.834;2023-12-29T08:13:07;97176.44;;;7.81;75.86
22181;BME280;11256;50.830;12.834;2023-12-29T08:18:10;97138.72;;;7.66;75.37
22181;BME280;11256;50.830;12.834;2023-12-29T08:23:11;97142.75;;;7.73;75.52
22181;BME280;11256;50.830;12.834;2023-12-29T08:28:11;97184.47;;;7.96;75.40
22181;BME280;11256;50.830;12.834;2023-12-29T08:33:12;97192.47;;;8.11;75.76
22181;BME280;11256;50.830;12.834;2023-12-29T08:38:13;97188.16;;;8.15;75.34
22181;BME280;11256;50.830;12.834;2023-12-29T08:43:14;97177.34;;;8.15;75.84
22181;BME280;11256;50.830;12.834;2023-12-29T08:48:14;97164.13;;;8.13;75.43
22181;BME280;11256;50.830;12.834;2023-12-29T08:53:14;97151.97;;;8.16;75.50
22181;BME280;11256;50.830;12.834;2023-12-29T08:58:15;97163.81;;;8.30;75.50
22181;BME280;11256;50.830;12.834;2023-12-29T09:03:16;97168.66;;;8.33;75.40
22181;BME280;11256;50.830;12.834;2023-12-29T09:08:17;97169.72;;;8.37;75.88
22181;BME280;11256;50.830;12.834;2023-12-29T09:13:17;97155.38;;;8.41;75.31
22181;BME280;11256;50.830;12.834;2023-12-29T09:18:18;97160.94;;;8.55;75.56
22181;BME280;11256;50.830;12.834;2023-12-29T09:23:19;97160.66;;;8.61;75.15
22181;BME280;11256;50.830;12.834;2023-12-29T09:28:19;97166.25;;;8.70;75.47
22181;BME280;11256;50.830;12.834;2023-12-29T09:33:19;97138.16;;;8.71;75.31
22181;BME280;11256;50.830;12.834;2023-12-29T09:38:20;97170.41;;;8.91;75.37
22181;BME280;11256;50.830;12.834;2023-12-29T09:43:20;97170.66;;;8.94;74.99
22181;BME280;11256;50.830;12.834;2023-12-29T09:48:22;97164.94;;;9.01;74.19
22181;BME280;11256;50.830;12.834;2023-12-29T09:53:26;97173.00;;;9.06;74.05
22181;BME280;11256;50.830;12.834;2023-12-29T09:58:27;97182.75;;;9.02;74.29
22181;BME280;11256;50.830;12.834;2023-12-29T10:03:28;97167.66;;;9.01;74.30
22181;BME280;11256;50.830;12.834;2023-12-29T10:08:28;97174.06;;;9.10;74.07
22181;BME280;11256;50.830;12.834;2023-12-29T10:13:31;97163.34;;;9.00;73.77
22181;BME280;11256;50.830;12.834;2023-12-29T10:18:42;97178.09;;;9.12;74.11
22181;BME280;11256;50.830;12.834;2023-12-29T10:23:57;97193.50;;;9.12;74.08
22181;BME280;11256;50.830;12.834;2023-12-29T10:29:01;97186.94;;;9.18;74.00
22181;BME280;11256;50.830;12.834;2023-12-29T10:34:21;97173.94;;;9.20;73.87
22181;BME280;11256;50.830;12.834;2023-12-29T10:39:31;97163.69;;;9.22;73.94
22181;BME280;11256;50.830;12.834;2023-12-29T10:44:36;97156.03;;;9.29;73.73
22181;BME280;11256;50.830;12.834;2023-12-29T10:49:37;97130.59;;;9.30;73.61
22181;BME280;11256;50.830;12.834;2023-12-29T10:54:38;97130.28;;;9.36;73.93
22181;BME280;11256;50.830;12.834;2023-12-29T10:59:39;97125.88;;;9.45;74.07
22181;BME280;11256;50.830;12.834;2023-12-29T11:04:39;97107.22;;;9.44;74.06
22181;BME280;11256;50.830;12.834;2023-12-29T11:09:41;97125.16;;;9.58;74.04
22181;BME280;11256;50.830;12.834;2023-12-29T11:14:42;97115.66;;;9.61;73.42
22181;BME280;11256;50.830;12.834;2023-12-29T11:19:46;97129.69;;;9.63;73.03
22181;BME280;11256;50.830;12.834;2023-12-29T11:24:49;97124.84;;;9.65;73.42
22181;BME280;11256;50.830;12.834;2023-12-29T11:29:49;97127.66;;;9.78;73.41
22181;BME280;11256;50.830;12.834;2023-12-29T11:34:59;97113.25;;;9.83;72.85
22181;BME280;11256;50.830;12.834;2023-12-29T11:40:18;97129.94;;;9.90;73.02
22181;BME280;11256;50.830;12.834;2023-12-29T11:45:30;97110.91;;;9.95;72.92
22181;BME280;11256;50.830;12.834;2023-12-29T11:50:36;97090.88;;;9.96;72.96
22181;BME280;11256;50.830;12.834;2023-12-29T11:55:39;97102.69;;;10.05;72.51
22181;BME280;11256;50.830;12.834;2023-12-29T12:00:46;97080.81;;;10.01;72.47
22181;BME280;11256;50.830;12.834;2023-12-29T12:05:48;97086.72;;;10.03;72.12
22181;BME280;11256;50.830;12.834;2023-12-29T12:10:48;97065.94;;;9.99;72.29
22181;BME280;11256;50.830;12.834;2023-12-29T12:15:49;97067.16;;;10.11;72.24
22181;BME280;11256;50.830;12.834;2023-12-29T12:20:50;97080.97;;;10.10;71.44
22181;BME280;11256;50.830;12.834;2023-12-29T12:25:51;97075.78;;;10.13;71.60
22181;BME280;11256;50.830;12.834;2023-12-29T12:31:05;97075.63;;;10.05;70.81
22181;BME280;11256;50.830;12.834;2023-12-29T12:36:06;97079.09;;;10.10;71.96
22181;BME280;11256;50.830;12.834;2023-12-29T12:41:11;97064.28;;;10.03;71.21
22181;BME280;11256;50.830;12.834;2023-12-29T12:46:14;97088.00;;;10.11;71.02
22181;BME280;11256;50.830;12.834;2023-12-29T12:51:14;97088.50;;;10.13;71.33
22181;BME280;11256;50.830;12.834;2023-12-29T12:56:16;97076.38;;;10.10;70.48
22181;BME280;11256;50.830;12.834;2023-12-29T13:01:17;97058.09;;;9.97;70.92
22181;BME280;11256;50.830;12.834;2023-12-29T13:06:17;97079.88;;;10.11;70.88
22181;BME280;11256;50.830;12.834;2023-12-29T13:11:21;97076.59;;;10.14;71.10
22181;BME280;11256;50.830;12.834;2023-12-29T13:16:36;97051.81;;;10.02;70.76
22181;BME280;11256;50.830;12.834;2023-12-29T13:21:39;97058.22;;;10.11;70.38
22181;BME280;11256;50.830;12.834;2023-12-29T13:26:40;97063.13;;;10.09;70.27
22181;BME280;11256;50.830;12.834;2023-12-29T13:31:41;97064.59;;;10.20;70.62
22181;BME280;11256;50.830;12.834;2023-12-29T13:36:48;97056.00;;;10.13;70.58
22181;BME280;11256;50.830;12.834;2023-12-29T13:41:50;97047.31;;;10.16;70.58
22181;BME280;11256;50.830;12.834;2023-12-29T13:46:51;97051.56;;;10.22;70.26
22181;BME280;11256;50.830;12.834;2023-12-29T13:51:52;97069.41;;;10.23;70.49
22181;BME280;11256;50.830;12.834;2023-12-29T13:56:53;97056.09;;;10.26;70.37
22181;BME280;11256;50.830;12.834;2023-12-29T14:01:53;97054.19;;;10.27;70.46
22181;BME280;11256;50.830;12.834;2023-12-29T14:06:59;97062.81;;;10.29;70.49
22181;BME280;11256;50.830;12.834;2023-12-29T14:12:01;97073.22;;;10.22;70.01
22181;BME280;11256;50.830;12.834;2023-12-29T14:17:01;97065.09;;;10.22;70.33
22181;BME280;11256;50.830;12.834;2023-12-29T14:22:01;97066.78;;;10.18;70.44
22181;BME280;11256;50.830;12.834;2023-12-29T14:27:02;97071.75;;;10.11;70.30
22181;BME280;11256;50.830;12.834;2023-12-29T14:32:03;97055.50;;;10.11;70.03
22181;BME280;11256;50.830;12.834;2023-12-29T14:37:06;97084.19;;;10.12;69.95
22181;BME280;11256;50.830;12.834;2023-12-29T14:42:07;97070.72;;;10.07;70.14
22181;BME280;11256;50.830;12.834;2023-12-29T14:47:07;97078.19;;;10.15;70.32
22181;BME280;11256;50.830;12.834;2023-12-29T14:52:07;97081.13;;;10.18;70.50
22181;BME280;11256;50.830;12.834;2023-12-29T14:57:08;97048.78;;;10.08;70.14
22181;BME280;11256;50.830;12.834;2023-12-29T15:02:09;97071.19;;;10.14;70.16
22181;BME280;11256;50.830;12.834;2023-12-29T15:07:12;97073.16;;;10.08;70.40
22181;BME280;11256;50.830;12.834;2023-12-29T15:12:12;97064.53;;;10.06;70.69
22181;BME280;11256;50.830;12.834;2023-12-29T15:17:12;97073.91;;;10.14;70.65
22181;BME280;11256;50.830;12.834;2023-12-29T15:22:12;97062.31;;;10.08;70.42
22181;BME280;11256;50.830;12.834;2023-12-29T15:27:13;97052.31;;;10.09;70.54
22181;BME280;11256;50.830;12.834;2023-12-29T15:32:13;97061.97;;;10.15;70.18
22181;BME280;11256;50.830;12.834;2023-12-29T15:37:14;97061.13;;;10.14;70.43
22181;BME280;11256;50.830;12.834;2023-12-29T15:42:15;97062.47;;;10.17;70.49
22181;BME280;11256;50.830;12.834;2023-12-29T15:47:15;97064.38;;;10.16;70.53
22181;BME280;11256;50.830;12.834;2023-12-29T15:52:15;97052.31;;;10.09;70.92
22181;BME280;11256;50.830;12.834;2023-12-29T15:57:16;97052.31;;;10.09;70.73
22181;BME280;11256;50.830;12.834;2023-12-29T16:02:16;97051.50;;;10.08;70.49
22181;BME280;11256;50.830;12.834;2023-12-29T16:07:17;97044.69;;;10.11;70.88
22181;BME280;11256;50.830;12.834;2023-12-29T16:12:17;97029.09;;;10.03;70.49
22181;BME280;11256;50.830;12.834;2023-12-29T16:17:18;97038.59;;;10.00;70.83
22181;BME280;11256;50.830;12.834;2023-12-29T16:22:18;97031.34;;;9.96;70.37
22181;BME280;11256;50.830;12.834;2023-12-29T16:27:19;97025.41;;;9.94;70.66
22181;BME280;11256;50.830;12.834;2023-12-29T16:32:23;97035.69;;;9.97;70.87
22181;BME280;11256;50.830;12.834;2023-12-29T16:37:24;97020.34;;;9.87;70.87
22181;BME280;11256;50.830;12.834;2023-12-29T16:42:25;97020.06;;;9.89;70.66
22181;BME280;11256;50.830;12.834;2023-12-29T16:47:26;96975.16;;;9.51;70.94
22181;BME280;11256;50.830;12.834;2023-12-29T16:52:26;96980.44;;;9.61;70.78
22181;BME280;11256;50.830;12.834;2023-12-29T16:57:26;97007.78;;;9.78;70.98
22181;BME280;11256;50.830;12.834;2023-12-29T17:02:27;97000.50;;;9.78;70.75
22181;BME280;11256;50.830;12.834;2023-12-29T17:07:27;96959.38;;;9.58;70.93
22181;BME280;11256;50.830;12.834;2023-12-29T17:12:27;96990.16;;;9.80;70.75
22181;BME280;11256;50.830;12.834;2023-12-29T17:17:28;96984.09;;;9.70;70.44
22181;BME280;11256;50.830;12.834;2023-12-29T17:22:28;96977.66;;;9.66;70.41
22181;BME280;11256;50.830;12.834;2023-12-29T17:27:28;96977.66;;;9.66;70.81
22181;BME280;11256;50.830;12.834;2023-12-29T17:32:29;96977.66;;;9.66;70.85
22181;BME280;11256;50.830;12.834;2023-12-29T17:37:29;96982.03;;;9.62;70.93
22181;BME280;11256;50.830;12.834;2023-12-29T17:42:32;96990.66;;;9.64;70.72
22181;BME280;11256;50.830;12.834;2023-12-29T17:47:32;96994.53;;;9.58;70.97
22181;BME280;11256;50.830;12.834;2023-12-29T17:52:33;96994.53;;;9.58;71.06
22181;BME280;11256;50.830;12.834;2023-12-29T17:57:33;97003.38;;;9.63;71.23
22181;BME280;11256;50.830;12.834;2023-12-29T18:02:36;97003.69;;;9.62;71.17
22181;BME280;11256;50.830;12.834;2023-12-29T18:07:36;97005.88;;;9.60;71.49
22181;BME280;11256;50.830;12.834;2023-12-29T18:12:37;96997.16;;;9.63;71.28
22181;BME280;11256;50.830;12.834;2023-12-29T18:17:37;96991.59;;;9.54;71.12
22181;BME280;11256;50.830;12.834;2023-12-29T18:22:38;96976.75;;;9.52;71.19
22181;BME280;11256;50.830;12.834;2023-12-29T18:27:38;96994.53;;;9.58;71.20
22181;BME280;11256;50.830;12.834;2023-12-29T18:32:39;96994.53;;;9.58;71.63
22181;BME280;11256;50.830;12.834;2023-12-29T18:37:39;96990.28;;;9.52;71.39
22181;BME280;11256;50.830;12.834;2023-12-29T18:42:39;97000.00;;;9.53;71.80
22181;BME280;11256;50.830;12.834;2023-12-29T18:47:40;96995.19;;;9.50;71.44
22181;BME280;11256;50.830;12.834;2023-12-29T18:52:40;96995.06;;;9.60;71.71
22181;BME280;11256;50.830;12.834;2023-12-29T18:57:40;97003.25;;;9.55;71.56
22181;BME280;11256;50.830;12.834;2023-12-29T19:02:43;96983.34;;;9.46;71.28
22181;BME280;11256;50.830;12.834;2023-12-29T19:07:44;96995.63;;;9.57;71.79
22181;BME280;11256;50.830;12.834;2023-12-29T19:12:45;96973.19;;;9.38;71.71
22181;BME280;11256;50.830;12.834;2023-12-29T19:17:50;96984.72;;;9.43;71.70
22181;BME280;11256;50.830;12.834;2023-12-29T19:22:50;97000.59;;;9.50;71.77
22181;BME280;11256;50.830;12.834;2023-12-29T19:27:51;96988.31;;;9.39;72.15
22181;BME280;11256;50.830;12.834;2023-12-29T19:32:51;96987.06;;;9.50;72.05
22181;BME280;11256;50.830;12.834;2023-12-29T19:37:52;96981.66;;;9.50;71.91
22181;BME280;11256;50.830;12.834;2023-12-29T19:42:53;96940.34;;;9.26;72.09
22181;BME280;11256;50.830;12.834;2023-12-29T19:47:53;96982.47;;;9.50;72.00
22181;BME280;11256;50.830;12.834;2023-12-29T19:52:53;96993.75;;;9.57;71.92
22181;BME280;11256;50.830;12.834;2023-12-29T19:57:53;96981.06;;;9.53;71.92
22181;BME280;11256;50.830;12.834;2023-12-29T20:02:54;96993.47;;;9.59;71.87
22181;BME280;11256;50.830;12.834;2023-12-29T20:07:54;96974.94;;;9.47;71.99
22181;BME280;11256;50.830;12.834;2023-12-29T20:12:54;96986.41;;;9.58;72.02
22181;BME280;11256;50.830;12.834;2023-12-29T20:17:55;96978.97;;;9.50;71.76
22181;BME280;11256;50.830;12.834;2023-12-29T20:22:56;96993.06;;;9.65;71.79
22181;BME280;11256;50.830;12.834;2023-12-29T20:27:57;96992.28;;;9.65;71.74
22181;BME280;11256;50.830;12.834;2023-12-29T20:32:57;96991.47;;;9.64;71.44
22181;BME280;11256;50.830;12.834;2023-12-29T20:37:59;97006.09;;;9.63;71.75
22181;BME280;11256;50.830;12.834;2023-12-29T20:42:59;96977.22;;;9.59;71.57
22181;BME280;11256;50.830;12.834;2023-12-29T20:47:59;96999.31;;;9.66;71.66
22181;BME280;11256;50.830;12.834;2023-12-29T20:53:00;97004.72;;;9.66;71.59
22181;BME280;11256;50.830;12.834;2023-12-29T20:58:00;96996.66;;;9.61;71.65
22181;BME280;11256;50.830;12.834;2023-12-29T21:03:00;96998.47;;;9.65;71.54
22181;BME280;11256;50.830;12.834;2023-12-29T21:08:01;96971.91;;;9.72;71.50
22181;BME280;11256;50.830;12.834;2023-12-29T21:13:01;96968.88;;;9.74;71.64
22181;BME280;11256;50.830;12.834;2023-12-29T21:18:01;96968.94;;;9.69;71.31
22181;BME280;11256;50.830;12.834;2023-12-29T21:23:02;96965.75;;;9.67;71.66
22181;BME280;11256;50.830;12.834;2023-12-29T21:28:03;96964.63;;;9.68;71.21
22181;BME280;11256;50.830;12.834;2023-12-29T21:33:03;96981.69;;;9.68;71.25
22181;BME280;11256;50.830;12.834;2023-12-29T21:38:03;96968.44;;;9.67;71.32
22181;BME280;11256;50.830;12.834;2023-12-29T21:43:04;96961.72;;;9.64;71.11
22181;BME280;11256;50.830;12.834;2023-12-29T21:48:04;96967.78;;;9.56;71.20
22181;BME280;11256;50.830;12.834;2023-12-29T21:53:05;96973.63;;;9.63;71.43
22181;BME280;11256;50.830;12.834;2023-12-29T21:58:06;96941.22;;;9.40;71.12
22181;BME280;11256;50.830;12.834;2023-12-29T22:03:14;96956.81;;;9.48;71.17
22181;BME280;11256;50.830;12.834;2023-12-29T22:08:15;96933.19;;;9.35;71.00
22181;BME280;11256;50.830;12.834;2023-12-29T22:13:15;96916.91;;;9.40;71.41
22181;BME280;11256;50.830;12.834;2023-12-29T22:18:16;96946.16;;;9.56;71.22
22181;BME280;11256;50.830;12.834;2023-12-29T22:23:18;96956.91;;;9.61;71.16
22181;BME280;11256;50.830;12.834;2023-12-29T22:28:18;96959.91;;;9.60;71.02
22181;BME280;11256;50.830;12.834;2023-12-29T22:33:19;96979.41;;;9.57;71.06
22181;BME280;11256;50.830;12.834;2023-12-29T22:38:20;96972.97;;;9.53;70.52
22181;BME280;11256;50.830;12.834;2023-12-29T22:43:20;96965.94;;;9.52;71.38
22181;BME280;11256;50.830;12.834;2023-12-29T22:48:22;96949.28;;;9.45;71.12
22181;BME280;11256;50.830;12.834;2023-12-29T22:53:26;96956.00;;;9.47;71.19
22181;BME280;11256;50.830;12.834;2023-12-29T22:58:33;96937.00;;;9.34;70.82
22181;BME280;11256;50.830;12.834;2023-12-29T23:03:51;96957.31;;;9.50;71.34
22181;BME280;11256;50.830;12.834;2023-12-29T23:08:51;96901.47;;;9.22;70.93
22181;BME280;11256;50.830;12.834;2023-12-29T23:13:52;96933.53;;;9.28;71.06
22181;BME280;11256;50.830;12.834;2023-12-29T23:19:10;96938.81;;;9.38;71.26
22181;BME280;11256;50.830;12.834;2023-12-29T23:24:14;96928.50;;;9.22;71.12
22181;BME280;11256;50.830;12.834;2023-12-29T23:29:15;96922.16;;;9.31;71.12
22181;BME280;11256;50.830;12.834;2023-12-29T23:34:15;96926.84;;;9.26;71.04
22181;BME280;11256;50.830;12.834;2023-12-29T23:39:15;96949.06;;;9.41;71.07
22181;BME280;11256;50.830;12.834;2023-12-29T23:44:16;96957.91;;;9.47;70.98
22181;BME280;11256;50.830;12.834;2023-12-29T23:49:25;96957.91;;;9.47;70.84
22181;BME280;11256;50.830;12.834;2023-12-29T23:54:37;96941.38;;;9.30;70.58
22181;BME280;11256;50.830;12.834;2023-12-29T23:59:38;96984.00;;;9.38;70.87
